Terminal Aerodrome Forecast
Issued by NWS

Home | Current Version | Previous Version | Text Only | Print | Product List | Glossary On
Versions: 1 2 3 4 5 6 7 8 9 10 11 12 13 14 15 16 17 18 19 20 21 22 23 24 25 26 27 28
000
FTUS43 KDTX 221626 AAA
TAFMBS
TAF AMD
KMBS 221626Z 2216/2312 00000KT 1/4SM FG VV002
     FM221900 05005KT 1/2SM FG BKN003
     FM222100 06007KT 1SM BR BKN004 OVC200
     FM230000 03003KT 1/4SM FG BKN004 OVC100=

USA.gov is the U.S. government's official web portal to all federal, state and local government web resources and services.